createdAt,value
2018-09-30T00:00:46.342Z,2.90
2018-09-30T00:03:14.659Z,3.60
2018-09-30T00:05:42.971Z,2.97
2018-09-30T00:08:11.373Z,3.40
2018-09-30T00:10:39.745Z,3.60
2018-09-30T00:13:08.181Z,3.30
2018-09-30T00:15:36.509Z,3.57
2018-09-30T00:18:04.881Z,2.93
2018-09-30T00:20:33.207Z,3.50
2018-09-30T00:23:01.569Z,3.20
2018-09-30T00:25:35.317Z,3.37
2018-09-30T00:28:03.664Z,2.60
2018-09-30T00:30:32.016Z,3.10
2018-09-30T00:33:00.425Z,2.73
2018-09-30T00:35:28.772Z,3.23
2018-09-30T00:37:57.091Z,2.70
2018-09-30T00:40:25.458Z,3.40
2018-09-30T00:42:53.817Z,3.55
2018-09-30T00:45:22.144Z,2.60
2018-09-30T00:47:50.484Z,3.00
2018-09-30T00:50:18.874Z,3.02
2018-09-30T00:52:47.192Z,2.97
2018-09-30T00:55:15.545Z,3.30
2018-09-30T00:57:43.920Z,3.27
2018-09-30T01:00:12.287Z,3.00
2018-09-30T01:02:40.663Z,2.65
2018-09-30T01:05:09.120Z,3.00
2018-09-30T01:07:37.480Z,3.10
2018-09-30T01:10:06.018Z,2.90
2018-09-30T01:12:34.364Z,2.93
2018-09-30T01:15:02.708Z,2.90
2018-09-30T01:17:31.073Z,2.50
2018-09-30T01:19:59.413Z,3.33
2018-09-30T01:22:27.764Z,2.70
2018-09-30T01:24:56.084Z,2.43
2018-09-30T01:27:24.429Z,2.97
2018-09-30T01:29:52.749Z,2.53
2018-09-30T01:32:21.105Z,3.05
2018-09-30T01:34:49.411Z,3.00
2018-09-30T01:37:17.760Z,3.43
2018-09-30T01:39:46.133Z,9.63
2018-09-30T01:42:14.478Z,4.17
2018-09-30T01:44:42.811Z,4.00
2018-09-30T01:47:11.147Z,3.20
2018-09-30T01:49:39.468Z,4.67
2018-09-30T01:52:19.224Z,3.87
2018-09-30T01:54:47.586Z,2.60
2018-09-30T01:57:15.908Z,2.73
2018-09-30T01:59:44.256Z,2.60
2018-09-30T02:02:12.578Z,2.80
2018-09-30T02:04:40.932Z,2.83
2018-09-30T02:07:09.262Z,2.67
2018-09-30T02:09:37.606Z,2.50
2018-09-30T02:12:06.025Z,2.95
2018-09-30T02:14:34.341Z,3.03
2018-09-30T02:17:02.836Z,2.70
2018-09-30T02:19:31.299Z,2.97
2018-09-30T02:21:59.625Z,3.53
2018-09-30T02:24:27.940Z,3.03
2018-09-30T02:26:56.333Z,2.72
2018-09-30T02:29:24.700Z,3.33
2018-09-30T02:31:53.031Z,2.87
2018-09-30T02:34:21.386Z,3.17
2018-09-30T02:36:49.718Z,2.40
2018-09-30T02:39:18.034Z,2.87
2018-09-30T02:41:46.402Z,2.90
2018-09-30T02:44:14.717Z,2.72
2018-09-30T02:46:43.069Z,2.70
2018-09-30T02:49:11.377Z,3.00
2018-09-30T02:51:39.723Z,2.90
2018-09-30T02:54:08.035Z,2.83
2018-09-30T02:56:36.401Z,3.00
2018-09-30T02:59:04.773Z,3.35
2018-09-30T03:01:33.080Z,2.90
2018-09-30T03:04:01.444Z,2.90
2018-09-30T03:06:35.302Z,3.47
2018-09-30T03:09:09.123Z,2.87
2018-09-30T03:11:37.460Z,3.37
2018-09-30T03:14:05.812Z,2.92
2018-09-30T03:16:34.196Z,3.47
2018-09-30T03:19:02.653Z,3.30
2018-09-30T03:21:30.969Z,3.40
2018-09-30T03:23:59.327Z,2.70
2018-09-30T03:26:27.633Z,3.15
2018-09-30T03:28:56.000Z,3.03
2018-09-30T03:31:24.324Z,3.00
2018-09-30T03:33:52.752Z,3.90
2018-09-30T03:36:21.051Z,3.40
2018-09-30T03:38:49.356Z,2.83
2018-09-30T03:41:17.755Z,3.33
2018-09-30T03:43:46.135Z,2.85
2018-09-30T03:46:14.514Z,3.00
2018-09-30T03:48:42.839Z,3.20
2018-09-30T03:51:11.184Z,3.20
2018-09-30T03:53:39.505Z,3.10
2018-09-30T03:56:07.848Z,2.80
2018-09-30T03:58:36.157Z,3.58
2018-09-30T04:01:04.512Z,3.02
2018-09-30T04:03:32.812Z,3.00
2018-09-30T04:06:01.241Z,3.45
2018-09-30T04:08:29.574Z,3.62
2018-09-30T04:10:57.892Z,3.40
2018-09-30T04:13:26.260Z,3.50
2018-09-30T04:15:54.568Z,3.25
2018-09-30T04:18:22.949Z,3.35
2018-09-30T04:20:51.444Z,3.40
2018-09-30T04:23:19.796Z,2.50
2018-09-30T04:25:48.139Z,2.80
2018-09-30T04:28:16.459Z,2.98
2018-09-30T04:30:44.769Z,3.20
2018-09-30T04:33:13.187Z,3.12
2018-09-30T04:35:41.480Z,2.92
2018-09-30T04:38:09.808Z,3.70
2018-09-30T04:40:38.140Z,3.08
2018-09-30T04:43:06.904Z,2.98
2018-09-30T04:45:35.227Z,3.40
2018-09-30T04:48:03.587Z,3.60
2018-09-30T04:50:31.899Z,3.45
2018-09-30T04:53:00.312Z,3.45
2018-09-30T04:55:28.675Z,3.10
2018-09-30T04:57:57.040Z,3.10
2018-09-30T05:00:25.389Z,2.92
2018-09-30T05:02:53.713Z,2.90
2018-09-30T05:05:22.049Z,3.00
2018-09-30T05:07:50.391Z,3.70
2018-09-30T05:10:18.725Z,2.75
2018-09-30T05:12:47.065Z,3.05
2018-09-30T05:15:16.372Z,2.55
2018-09-30T05:17:44.692Z,3.08
2018-09-30T05:20:13.043Z,3.00
2018-09-30T05:22:41.404Z,2.70
2018-09-30T05:25:09.761Z,3.67
2018-09-30T05:27:38.076Z,3.05
2018-09-30T05:30:06.520Z,3.05
2018-09-30T05:32:34.841Z,2.62
2018-09-30T05:35:03.185Z,2.90
2018-09-30T05:37:31.534Z,3.22
2018-09-30T05:39:59.895Z,3.67
2018-09-30T05:42:28.331Z,3.20
2018-09-30T05:44:56.666Z,3.00
2018-09-30T05:47:25.003Z,3.58
2018-09-30T05:49:53.418Z,3.00
2018-09-30T05:52:21.785Z,3.52
2018-09-30T05:54:50.149Z,2.72
2018-09-30T05:57:18.485Z,3.42
2018-09-30T05:59:46.830Z,3.30
2018-09-30T06:02:15.171Z,3.60
2018-09-30T06:04:43.535Z,2.98
2018-09-30T06:07:11.928Z,3.22
2018-09-30T06:09:40.268Z,3.22
2018-09-30T06:12:08.656Z,3.08
2018-09-30T06:14:37.025Z,3.60
2018-09-30T06:17:05.398Z,3.20
2018-09-30T06:19:33.783Z,3.55
2018-09-30T06:22:02.131Z,3.85
2018-09-30T06:24:30.480Z,4.05
2018-09-30T06:26:58.868Z,3.37
2018-09-30T06:29:27.213Z,3.40
2018-09-30T06:31:55.657Z,3.15
2018-09-30T06:34:24.360Z,3.27
2018-09-30T06:36:52.740Z,3.70
2018-09-30T06:39:21.077Z,3.60
2018-09-30T06:41:49.426Z,3.20
2018-09-30T06:44:17.808Z,3.58
2018-09-30T06:46:46.177Z,3.45
2018-09-30T06:49:14.609Z,3.45
2018-09-30T06:51:42.916Z,3.50
2018-09-30T06:54:11.236Z,3.30
2018-09-30T06:56:39.624Z,3.37
2018-09-30T06:59:08.141Z,3.15
2018-09-30T07:01:36.501Z,3.08
2018-09-30T07:04:04.968Z,4.00
2018-09-30T07:06:34.165Z,2.92
2018-09-30T07:09:02.598Z,3.50
2018-09-30T07:11:30.944Z,3.30
2018-09-30T07:13:59.291Z,3.20
2018-09-30T07:16:27.647Z,3.12
2018-09-30T07:18:56.006Z,3.95
2018-09-30T07:21:24.384Z,3.75
2018-09-30T07:23:52.715Z,3.50
2018-09-30T07:26:21.092Z,3.80
2018-09-30T07:28:49.544Z,3.40
2018-09-30T07:31:17.920Z,3.97
2018-09-30T07:33:46.338Z,3.37
2018-09-30T07:36:14.677Z,3.70
2018-09-30T07:38:42.999Z,3.77
2018-09-30T07:41:11.453Z,3.90
2018-09-30T07:43:39.821Z,3.90
2018-09-30T07:46:08.653Z,3.60
2018-09-30T07:48:37.041Z,3.90
2018-09-30T07:51:05.365Z,3.80
2018-09-30T07:53:33.728Z,3.47
2018-09-30T07:56:02.128Z,3.50
2018-09-30T07:58:30.456Z,3.80
2018-09-30T08:00:58.828Z,3.33
2018-09-30T08:03:27.147Z,3.73
2018-09-30T08:05:55.499Z,4.23
2018-09-30T08:08:23.828Z,3.70
2018-09-30T08:10:52.176Z,4.13
2018-09-30T08:13:20.585Z,4.27
2018-09-30T08:15:48.941Z,4.70
2018-09-30T08:18:17.524Z,32.47
2018-09-30T08:20:45.886Z,4.90
2018-09-30T08:23:14.270Z,4.50
2018-09-30T08:25:42.654Z,14.37
2018-09-30T08:28:11.135Z,5.20
2018-09-30T08:30:39.540Z,5.37
2018-09-30T08:33:07.983Z,5.03
2018-09-30T08:35:36.319Z,4.60
2018-09-30T08:38:10.185Z,4.30
2018-09-30T08:40:43.855Z,5.13
2018-09-30T08:43:12.232Z,4.93
2018-09-30T08:45:40.645Z,5.77
2018-09-30T08:48:08.973Z,4.70
2018-09-30T08:50:37.400Z,5.07
2018-09-30T08:53:05.893Z,4.50
2018-09-30T08:55:34.264Z,4.70
2018-09-30T08:58:02.698Z,4.93
2018-09-30T09:00:31.092Z,5.20
2018-09-30T09:02:59.510Z,5.40
2018-09-30T09:05:27.829Z,5.37
2018-09-30T09:07:56.168Z,5.63
2018-09-30T09:10:24.555Z,5.00
2018-09-30T09:12:53.027Z,5.20
2018-09-30T09:15:21.457Z,4.57
2018-09-30T09:17:49.917Z,4.97
2018-09-30T09:20:18.336Z,5.53
2018-09-30T09:22:47.018Z,5.40
2018-09-30T09:25:15.420Z,5.77
2018-09-30T09:27:43.897Z,5.70
2018-09-30T09:30:12.308Z,5.47
2018-09-30T09:32:40.713Z,5.30
2018-09-30T09:35:10.126Z,6.17
2018-09-30T09:37:39.073Z,5.23
2018-09-30T09:40:09.617Z,5.73
2018-09-30T09:42:38.044Z,5.37
2018-09-30T09:45:06.679Z,5.53
2018-09-30T09:47:35.080Z,5.50
2018-09-30T09:50:03.557Z,5.57
2018-09-30T09:52:31.953Z,5.63
2018-09-30T09:55:00.312Z,5.67
2018-09-30T09:57:28.676Z,5.87
2018-09-30T09:59:57.084Z,5.53
2018-09-30T10:02:25.537Z,5.30
2018-09-30T10:04:53.930Z,5.30
2018-09-30T10:07:22.324Z,5.80
2018-09-30T10:09:50.714Z,20.20
2018-09-30T10:12:19.259Z,13.07
2018-09-30T10:14:47.662Z,20.90
2018-09-30T10:17:16.020Z,16.20
2018-09-30T10:19:44.370Z,6.43
2018-09-30T10:22:12.728Z,9.93
2018-09-30T10:24:41.083Z,5.73
2018-09-30T10:27:09.471Z,6.07
2018-09-30T10:29:37.813Z,5.40
2018-09-30T10:32:06.204Z,5.33
2018-09-30T10:34:34.596Z,5.07
2018-09-30T10:37:02.981Z,4.20
2018-09-30T10:39:31.341Z,5.20
2018-09-30T10:41:59.732Z,5.47
2018-09-30T10:44:28.060Z,4.83
2018-09-30T10:46:56.416Z,6.00
2018-09-30T10:49:24.852Z,4.80
2018-09-30T10:51:53.161Z,5.10
2018-09-30T10:54:21.554Z,6.40
2018-09-30T10:56:49.995Z,5.33
2018-09-30T10:59:18.275Z,6.03
2018-09-30T11:01:46.612Z,6.07
2018-09-30T11:04:15.001Z,5.60
2018-09-30T11:06:43.353Z,6.03
2018-09-30T11:09:11.689Z,5.40
2018-09-30T11:11:40.123Z,5.50
2018-09-30T11:14:08.453Z,5.50
2018-09-30T11:16:36.767Z,6.20
2018-09-30T11:19:05.189Z,6.00
2018-09-30T11:21:33.565Z,6.10
2018-09-30T11:24:01.892Z,6.10
2018-09-30T11:26:30.224Z,6.43
2018-09-30T11:28:58.611Z,6.33
2018-09-30T11:31:26.985Z,6.67
2018-09-30T11:33:55.361Z,6.17
2018-09-30T11:36:23.698Z,5.63
2018-09-30T11:38:52.064Z,5.60
2018-09-30T11:41:20.448Z,5.73
2018-09-30T11:43:48.788Z,6.17
2018-09-30T11:46:17.137Z,5.77
2018-09-30T11:48:45.488Z,6.40
2018-09-30T11:51:13.858Z,6.17
2018-09-30T11:53:42.193Z,5.60
2018-09-30T11:56:10.543Z,5.80
2018-09-30T11:58:38.948Z,5.90
2018-09-30T12:01:07.400Z,5.60
2018-09-30T12:03:35.659Z,5.80
2018-09-30T12:06:03.984Z,7.00
2018-09-30T12:08:32.396Z,6.97
2018-09-30T12:11:01.496Z,6.27
2018-09-30T12:13:29.827Z,5.70
2018-09-30T12:15:58.160Z,42.77
2018-09-30T12:18:26.603Z,8.70
2018-09-30T12:20:54.950Z,5.40
2018-09-30T12:23:23.289Z,6.30
2018-09-30T12:25:51.659Z,6.83
2018-09-30T12:28:19.963Z,6.10
2018-09-30T12:30:48.396Z,5.80
2018-09-30T12:33:16.818Z,5.57
2018-09-30T12:35:45.194Z,5.90
2018-09-30T12:38:23.849Z,5.40
2018-09-30T12:40:53.545Z,6.20
2018-09-30T12:43:21.938Z,6.27
2018-09-30T12:45:50.276Z,5.80
2018-09-30T12:48:18.629Z,6.80
2018-09-30T12:50:47.036Z,5.80
2018-09-30T12:53:15.317Z,5.80
2018-09-30T12:55:43.705Z,5.80
2018-09-30T12:58:12.066Z,5.40
2018-09-30T13:00:40.413Z,4.67
2018-09-30T13:03:08.717Z,5.03
2018-09-30T13:05:37.068Z,5.67
2018-09-30T13:08:05.504Z,4.97
2018-09-30T13:10:33.858Z,5.40
2018-09-30T13:13:02.288Z,5.00
2018-09-30T13:15:30.646Z,5.00
2018-09-30T13:17:59.040Z,4.77
2018-09-30T13:20:27.373Z,4.57
2018-09-30T13:22:55.738Z,4.70
2018-09-30T13:25:24.061Z,5.30
2018-09-30T13:27:52.411Z,5.40
2018-09-30T13:30:20.815Z,4.90
2018-09-30T13:32:49.188Z,5.43
2018-09-30T13:35:17.585Z,4.57
2018-09-30T13:37:45.917Z,5.43
2018-09-30T13:40:14.363Z,4.60
2018-09-30T13:42:42.605Z,4.50
2018-09-30T13:45:11.048Z,4.60
2018-09-30T13:47:39.399Z,4.50
2018-09-30T13:50:07.781Z,4.50
2018-09-30T13:52:36.200Z,4.80
2018-09-30T13:55:04.599Z,4.50
2018-09-30T13:57:33.020Z,4.87
2018-09-30T14:00:01.368Z,5.10
2018-09-30T14:02:29.767Z,4.83
2018-09-30T14:04:58.132Z,4.90
2018-09-30T14:07:26.505Z,4.60
2018-09-30T14:09:54.853Z,4.13
2018-09-30T14:12:23.268Z,4.90
2018-09-30T14:14:51.608Z,5.90
2018-09-30T14:17:19.980Z,4.50
2018-09-30T14:19:48.319Z,4.30
2018-09-30T14:22:16.676Z,4.67
2018-09-30T14:24:45.005Z,4.60
2018-09-30T14:27:13.368Z,4.77
2018-09-30T14:29:41.699Z,4.17
2018-09-30T14:32:10.053Z,4.37
2018-09-30T14:34:38.571Z,4.67
2018-09-30T14:37:06.969Z,4.23
2018-09-30T14:39:35.337Z,3.57
2018-09-30T14:42:03.713Z,4.07
2018-09-30T14:44:32.041Z,3.80
2018-09-30T14:47:00.361Z,4.10
2018-09-30T14:49:28.704Z,3.83
2018-09-30T14:51:57.071Z,4.40
2018-09-30T14:54:25.460Z,3.93
2018-09-30T14:56:53.743Z,3.33
2018-09-30T14:59:22.134Z,3.80
2018-09-30T15:01:50.507Z,3.90
2018-09-30T15:04:18.848Z,3.87
2018-09-30T15:06:47.172Z,4.60
2018-09-30T15:09:15.543Z,3.80
2018-09-30T15:11:43.929Z,3.80
2018-09-30T15:14:12.493Z,4.00
2018-09-30T15:16:40.943Z,3.90
2018-09-30T15:19:09.294Z,4.33
2018-09-30T15:21:37.669Z,4.50
2018-09-30T15:24:05.984Z,4.37
2018-09-30T15:26:34.429Z,5.77
2018-09-30T15:29:02.813Z,11.43
2018-09-30T15:31:31.172Z,4.40
2018-09-30T15:33:59.541Z,4.67
2018-09-30T15:36:27.937Z,4.20
2018-09-30T15:38:56.288Z,4.87
2018-09-30T15:41:24.676Z,4.20
2018-09-30T15:43:53.058Z,4.80
2018-09-30T15:46:21.403Z,4.20
2018-09-30T15:48:49.812Z,4.10
2018-09-30T15:51:18.166Z,4.67
2018-09-30T15:53:46.622Z,4.80
2018-09-30T15:56:15.032Z,4.53
2018-09-30T15:58:43.376Z,4.63
2018-09-30T16:01:11.812Z,4.70
2018-09-30T16:03:40.273Z,4.40
2018-09-30T16:06:08.668Z,4.97
2018-09-30T16:08:37.028Z,5.30
2018-09-30T16:11:05.591Z,5.00
2018-09-30T16:13:33.947Z,4.57
2018-09-30T16:16:02.325Z,4.67
2018-09-30T16:18:30.657Z,5.30
2018-09-30T16:20:59.084Z,4.90
2018-09-30T16:23:27.432Z,4.77
2018-09-30T16:25:55.769Z,4.43
2018-09-30T16:28:24.134Z,4.37
2018-09-30T16:30:52.993Z,4.87
2018-09-30T16:33:21.372Z,4.30
2018-09-30T16:35:49.756Z,4.17
2018-09-30T16:38:18.151Z,4.70
2018-09-30T16:40:46.504Z,4.53
2018-09-30T16:43:14.882Z,3.67
2018-09-30T16:45:43.209Z,4.40
2018-09-30T16:48:11.669Z,4.30
2018-09-30T16:50:40.098Z,4.27
2018-09-30T16:53:08.398Z,5.00
2018-09-30T16:55:36.794Z,4.73
2018-09-30T16:58:05.430Z,4.47
2018-09-30T17:00:33.895Z,4.50
2018-09-30T17:03:02.280Z,4.10
2018-09-30T17:05:30.730Z,4.30
2018-09-30T17:07:59.119Z,4.50
2018-09-30T17:10:27.539Z,4.50
2018-09-30T17:12:56.066Z,4.77
2018-09-30T17:15:24.659Z,4.47
2018-09-30T17:17:53.020Z,4.27
2018-09-30T17:20:21.436Z,4.20
2018-09-30T17:22:49.788Z,5.17
2018-09-30T17:25:18.156Z,5.23
2018-09-30T17:27:46.548Z,6.53
2018-09-30T17:30:14.910Z,6.83
2018-09-30T17:32:43.316Z,7.00
2018-09-30T17:35:11.748Z,6.87
2018-09-30T17:37:40.153Z,6.93
2018-09-30T17:40:08.541Z,7.67
2018-09-30T17:42:36.880Z,7.53
2018-09-30T17:45:05.856Z,7.77
2018-09-30T17:47:34.200Z,7.60
2018-09-30T17:50:02.576Z,8.20
2018-09-30T17:52:30.990Z,8.07
2018-09-30T17:54:59.375Z,8.40
2018-09-30T17:57:27.752Z,8.13
2018-09-30T17:59:56.181Z,8.50
2018-09-30T18:02:24.603Z,7.43
2018-09-30T18:04:52.984Z,7.60
2018-09-30T18:07:21.581Z,6.67
2018-09-30T18:09:52.320Z,9.07
2018-09-30T18:12:21.546Z,8.90
2018-09-30T18:14:51.592Z,9.00
2018-09-30T18:17:21.204Z,9.07
2018-09-30T18:19:51.650Z,8.40
2018-09-30T18:22:21.819Z,9.83
2018-09-30T18:24:51.503Z,9.90
2018-09-30T18:27:21.497Z,10.40
2018-09-30T18:29:51.988Z,13.20
2018-09-30T18:32:21.877Z,18.13
2018-09-30T18:34:51.613Z,15.13
2018-09-30T18:37:22.520Z,12.33
2018-09-30T18:39:51.827Z,11.00
2018-09-30T18:42:21.816Z,10.63
2018-09-30T18:44:52.108Z,11.10
2018-09-30T18:47:29.782Z,12.43
2018-09-30T18:50:00.658Z,12.40
2018-09-30T18:52:31.620Z,11.43
2018-09-30T18:55:02.311Z,9.00
2018-09-30T18:57:32.478Z,9.23
2018-09-30T19:00:02.585Z,10.43
2018-09-30T19:02:31.879Z,10.57
2018-09-30T19:05:01.537Z,8.20
2018-09-30T19:07:31.529Z,8.30
2018-09-30T19:10:01.327Z,18.10
2018-09-30T19:12:31.195Z,6.73
2018-09-30T19:15:01.158Z,6.87
2018-09-30T19:17:31.173Z,6.73
2018-09-30T19:20:01.029Z,7.87
2018-09-30T19:22:31.103Z,7.67
2018-09-30T19:25:00.934Z,8.73
2018-09-30T19:27:30.636Z,8.93
2018-09-30T19:30:00.223Z,7.27
2018-09-30T19:32:29.704Z,7.20
2018-09-30T19:34:58.959Z,7.80
2018-09-30T19:37:27.827Z,7.37
2018-09-30T19:39:56.344Z,7.30
2018-09-30T19:42:24.796Z,7.90
2018-09-30T19:44:53.175Z,9.33
2018-09-30T19:47:21.977Z,9.60
2018-09-30T19:49:51.477Z,12.97
2018-09-30T19:52:21.267Z,14.70
2018-09-30T19:54:51.147Z,15.07
2018-09-30T19:57:20.947Z,13.03
2018-09-30T19:59:50.749Z,12.20
2018-09-30T20:02:19.557Z,12.50
2018-09-30T20:04:48.151Z,13.00
2018-09-30T20:07:16.627Z,12.03
2018-09-30T20:09:44.982Z,10.77
2018-09-30T20:12:13.333Z,10.80
2018-09-30T20:14:41.920Z,9.73
2018-09-30T20:17:10.762Z,10.20
2018-09-30T20:19:39.464Z,10.87
2018-09-30T20:22:09.195Z,10.83
2018-09-30T20:24:37.637Z,11.10
2018-09-30T20:27:06.108Z,9.97
2018-09-30T20:29:34.960Z,10.73
2018-09-30T20:32:03.339Z,10.70
2018-09-30T20:34:31.909Z,11.70
2018-09-30T20:37:01.183Z,11.70
2018-09-30T20:39:30.051Z,11.20
2018-09-30T20:41:58.544Z,16.87
2018-09-30T20:44:27.597Z,11.07
2018-09-30T20:46:55.975Z,10.90
2018-09-30T20:49:24.339Z,16.87
2018-09-30T20:51:52.726Z,12.47
2018-09-30T20:54:21.108Z,21.60
2018-09-30T20:56:49.489Z,11.87
2018-09-30T20:59:17.856Z,11.13
2018-09-30T21:01:46.246Z,9.80
2018-09-30T21:04:14.629Z,9.70
2018-09-30T21:06:44.118Z,9.10
2018-09-30T21:09:14.483Z,9.57
2018-09-30T21:11:42.861Z,9.40
2018-09-30T21:14:11.252Z,9.80
2018-09-30T21:16:39.631Z,8.73
2018-09-30T21:19:08.050Z,9.60
2018-09-30T21:21:38.506Z,8.83
2018-09-30T21:24:07.919Z,9.37
2018-09-30T21:26:36.607Z,9.03
2018-09-30T21:29:05.677Z,8.80
2018-09-30T21:31:34.304Z,8.90
2018-09-30T21:34:02.701Z,7.30
2018-09-30T21:36:31.503Z,8.00
2018-09-30T21:38:59.880Z,7.90
2018-09-30T21:41:28.653Z,8.70
2018-09-30T21:43:58.038Z,8.07
2018-09-30T21:46:26.625Z,8.67
2018-09-30T21:48:55.147Z,8.30
2018-09-30T21:51:23.551Z,10.17
2018-09-30T21:53:51.880Z,8.63
2018-09-30T21:56:20.432Z,9.07
2018-09-30T21:58:48.978Z,10.20
2018-09-30T22:01:17.465Z,9.70
2018-09-30T22:03:46.078Z,10.13
2018-09-30T22:06:14.725Z,10.27
2018-09-30T22:08:43.062Z,10.37
2018-09-30T22:11:11.411Z,9.97
2018-09-30T22:13:39.845Z,10.50
2018-09-30T22:16:08.259Z,10.60
2018-09-30T22:18:36.916Z,10.03
2018-09-30T22:21:05.505Z,10.03
2018-09-30T22:23:33.960Z,10.73
2018-09-30T22:26:02.936Z,10.60
2018-09-30T22:28:31.322Z,10.00
2018-09-30T22:30:59.732Z,10.10
2018-09-30T22:33:28.491Z,11.40
2018-09-30T22:35:57.219Z,10.80
2018-09-30T22:38:25.561Z,10.80
2018-09-30T22:40:53.928Z,10.93
2018-09-30T22:43:22.289Z,10.87
2018-09-30T22:45:50.605Z,10.67
2018-09-30T22:48:18.972Z,10.57
2018-09-30T22:50:47.353Z,11.47
2018-09-30T22:53:15.703Z,10.87
2018-09-30T22:55:44.015Z,11.90
2018-09-30T22:58:12.364Z,11.43
2018-09-30T23:00:40.700Z,10.90
2018-09-30T23:03:09.084Z,11.43
2018-09-30T23:05:37.447Z,10.77
2018-09-30T23:08:05.806Z,10.10
2018-09-30T23:10:34.116Z,11.00
2018-09-30T23:13:02.451Z,9.93
2018-09-30T23:15:30.776Z,9.33
2018-09-30T23:17:59.099Z,10.53
2018-09-30T23:20:27.445Z,9.30
2018-09-30T23:22:55.868Z,10.00
2018-09-30T23:25:24.265Z,9.27
2018-09-30T23:27:52.652Z,9.00
2018-09-30T23:30:21.010Z,9.70
2018-09-30T23:32:49.360Z,9.07
2018-09-30T23:35:17.721Z,9.10
2018-09-30T23:37:46.075Z,9.00
2018-09-30T23:40:14.403Z,9.17
2018-09-30T23:42:42.716Z,9.10
2018-09-30T23:45:11.171Z,9.00
2018-09-30T23:47:39.496Z,9.90
2018-09-30T23:50:07.849Z,9.70
2018-09-30T23:52:36.156Z,9.43
2018-09-30T23:55:04.549Z,8.90
2018-09-30T23:57:32.859Z,8.47
